AMX1178 MMMX-MROC
Flight info
| Callsign | AMX1178 |
|---|---|
| Flight time | N/A |
| Altitude | 37000 |
| Route | TEVOS2A TEVOS UT113 IZT J13 TAP UL423 IMOLA UM328 LIB BARRA4L |
| Aircraft | B738/M-SDE2E3FGHIRWXY/LB1 |
Departure
| Time | N/A |
|---|---|
| Airport | Mexico City Benito Juárez International Airport (MMMX) |
Arrival
| Time | 2026-04-30 00:49 |
|---|---|
| Airport | Juan Santamaría International Airport (MROC) |
| Time | Latitude | Longitude | Altitude | Speed | Heading |
|---|---|---|---|---|---|
| 2026-04-29 23:54 | 12.03472 | -87.26846 | 36784 ft | 467 kts | 122° |
| 2026-04-29 23:54 | 12.01870 | -87.23965 | 36785 ft | 466 kts | 123° |
| 2026-04-29 23:55 | 11.98638 | -87.18160 | 36784 ft | 467 kts | 123° |
| 2026-04-29 23:55 | 11.95406 | -87.12357 | 36779 ft | 466 kts | 123° |
| 2026-04-29 23:56 | 11.92197 | -87.06599 | 36777 ft | 467 kts | 123° |
| 2026-04-29 23:56 | 11.88968 | -87.00810 | 36768 ft | 465 kts | 123° |
| 2026-04-29 23:57 | 11.85757 | -86.95055 | 36762 ft | 465 kts | 123° |
| 2026-04-29 23:57 | 11.82541 | -86.89298 | 36762 ft | 466 kts | 123° |
| 2026-04-29 23:58 | 11.79287 | -86.83474 | 36765 ft | 466 kts | 123° |
| 2026-04-29 23:58 | 11.76073 | -86.77724 | 36767 ft | 465 kts | 123° |
| 2026-04-29 23:59 | 11.72868 | -86.71995 | 36769 ft | 465 kts | 123° |
| 2026-04-29 23:59 | 11.69651 | -86.66248 | 36783 ft | 466 kts | 123° |
| 2026-04-30 00:00 | 11.66421 | -86.60481 | 36788 ft | 465 kts | 123° |
| 2026-04-30 00:00 | 11.63213 | -86.54759 | 36789 ft | 465 kts | 123° |
| 2026-04-30 00:01 | 11.59986 | -86.49004 | 36793 ft | 465 kts | 123° |
| 2026-04-30 00:01 | 11.56775 | -86.43279 | 36793 ft | 466 kts | 123° |
| 2026-04-30 00:02 | 11.53540 | -86.37517 | 36789 ft | 466 kts | 123° |
| 2026-04-30 00:02 | 11.50310 | -86.31767 | 36795 ft | 465 kts | 123° |
| 2026-04-30 00:03 | 11.47092 | -86.26041 | 36796 ft | 465 kts | 123° |
| 2026-04-30 00:03 | 11.43871 | -86.20315 | 36802 ft | 465 kts | 123° |
| 2026-04-30 00:04 | 11.40643 | -86.14578 | 36806 ft | 466 kts | 123° |
| 2026-04-30 00:04 | 11.37427 | -86.08868 | 36810 ft | 465 kts | 123° |
| 2026-04-30 00:05 | 11.34192 | -86.03125 | 36811 ft | 466 kts | 123° |
| 2026-04-30 00:05 | 11.30951 | -85.97375 | 36812 ft | 466 kts | 123° |
| 2026-04-30 00:06 | 11.27707 | -85.91625 | 36821 ft | 466 kts | 123° |
| 2026-04-30 00:06 | 11.24488 | -85.85934 | 36832 ft | 465 kts | 124° |
| 2026-04-30 00:07 | 11.20640 | -85.80670 | 36837 ft | 455 kts | 142° |
| 2026-04-30 00:07 | 11.18104 | -85.78773 | 36841 ft | 448 kts | 154° |
| 2026-04-30 00:07 | 11.15316 | -85.77364 | 36842 ft | 445 kts | 160° |
| 2026-04-30 00:08 | 11.09580 | -85.74993 | 36827 ft | 444 kts | 162° |
| 2026-04-30 00:08 | 11.03780 | -85.72738 | 36824 ft | 443 kts | 162° |
| 2026-04-30 00:09 | 10.98018 | -85.70438 | 36821 ft | 443 kts | 162° |
| 2026-04-30 00:09 | 10.92254 | -85.68096 | 36822 ft | 443 kts | 162° |
| 2026-04-30 00:10 | 10.86483 | -85.65737 | 36822 ft | 443 kts | 162° |
| 2026-04-30 00:10 | 10.80749 | -85.63390 | 36821 ft | 445 kts | 161° |
| 2026-04-30 00:11 | 10.74996 | -85.61036 | 36817 ft | 443 kts | 161° |
| 2026-04-30 00:11 | 10.69215 | -85.58671 | 36819 ft | 443 kts | 161° |
| 2026-04-30 00:12 | 10.63553 | -85.56133 | 36585 ft | 442 kts | 154° |
| 2026-04-30 00:12 | 10.61015 | -85.54341 | 36173 ft | 441 kts | 143° |
| 2026-04-30 00:12 | 10.58828 | -85.52080 | 35607 ft | 444 kts | 133° |
| 2026-04-30 00:12 | 10.56999 | -85.49485 | 34935 ft | 447 kts | 126° |
| 2026-04-30 00:13 | 10.55439 | -85.46758 | 34258 ft | 448 kts | 122° |
| 2026-04-30 00:13 | 10.54017 | -85.43967 | 33579 ft | 449 kts | 120° |
| 2026-04-30 00:13 | 10.52627 | -85.41080 | 32866 ft | 449 kts | 119° |
| 2026-04-30 00:13 | 10.51281 | -85.38216 | 32190 ft | 450 kts | 119° |
| 2026-04-30 00:14 | 10.49944 | -85.35363 | 31498 ft | 451 kts | 119° |
| 2026-04-30 00:14 | 10.48593 | -85.32498 | 30963 ft | 455 kts | 120° |
| 2026-04-30 00:14 | 10.47184 | -85.29542 | 30383 ft | 466 kts | 120° |
| 2026-04-30 00:14 | 10.45772 | -85.26593 | 29774 ft | 464 kts | 120° |
| 2026-04-30 00:15 | 10.44369 | -85.23673 | 29156 ft | 461 kts | 120° |
| 2026-04-30 00:15 | 10.42958 | -85.20744 | 28541 ft | 458 kts | 120° |
| 2026-04-30 00:15 | 10.41561 | -85.17849 | 27944 ft | 455 kts | 120° |
| 2026-04-30 00:15 | 10.40166 | -85.14965 | 27329 ft | 453 kts | 120° |
| 2026-04-30 00:16 | 10.38792 | -85.12129 | 26716 ft | 450 kts | 119° |
| 2026-04-30 00:16 | 10.37410 | -85.09280 | 26105 ft | 448 kts | 119° |
| 2026-04-30 00:16 | 10.36030 | -85.06437 | 25488 ft | 446 kts | 119° |
| 2026-04-30 00:16 | 10.34670 | -85.03636 | 24874 ft | 443 kts | 119° |
| 2026-04-30 00:17 | 10.33316 | -85.00848 | 24269 ft | 441 kts | 118° |
| 2026-04-30 00:17 | 10.31963 | -84.98064 | 23660 ft | 439 kts | 118° |
| 2026-04-30 00:17 | 10.30630 | -84.95322 | 23055 ft | 437 kts | 118° |
| 2026-04-30 00:17 | 10.29278 | -84.92544 | 22456 ft | 434 kts | 118° |
| 2026-04-30 00:18 | 10.27960 | -84.89833 | 21876 ft | 432 kts | 118° |
| 2026-04-30 00:18 | 10.26619 | -84.87077 | 21275 ft | 430 kts | 117° |
| 2026-04-30 00:18 | 10.25318 | -84.84403 | 20704 ft | 428 kts | 117° |
| 2026-04-30 00:18 | 10.23989 | -84.81672 | 20108 ft | 425 kts | 117° |
| 2026-04-30 00:19 | 10.22698 | -84.79018 | 19524 ft | 415 kts | 117° |
| 2026-04-30 00:19 | 10.21458 | -84.76467 | 19099 ft | 401 kts | 117° |
| 2026-04-30 00:19 | 10.20236 | -84.73955 | 18601 ft | 390 kts | 117° |
| 2026-04-30 00:19 | 10.19059 | -84.71533 | 18050 ft | 381 kts | 117° |
| 2026-04-30 00:20 | 10.17899 | -84.69147 | 17475 ft | 373 kts | 116° |
| 2026-04-30 00:20 | 10.16756 | -84.66798 | 17002 ft | 363 kts | 116° |
| 2026-04-30 00:20 | 10.15637 | -84.64590 | 16758 ft | 347 kts | 120° |
| 2026-04-30 00:20 | 10.14305 | -84.62627 | 16536 ft | 331 kts | 132° |
| 2026-04-30 00:21 | 10.12565 | -84.61135 | 16113 ft | 324 kts | 146° |
| 2026-04-30 00:21 | 10.10652 | -84.59949 | 15666 ft | 322 kts | 149° |
| 2026-04-30 00:21 | 10.08710 | -84.58835 | 15240 ft | 321 kts | 150° |
| 2026-04-30 00:21 | 10.06752 | -84.57710 | 14827 ft | 320 kts | 149° |
| 2026-04-30 00:22 | 10.04881 | -84.56522 | 14431 ft | 318 kts | 143° |
| 2026-04-30 00:22 | 10.03227 | -84.55016 | 14026 ft | 317 kts | 131° |
| 2026-04-30 00:22 | 10.01835 | -84.53308 | 13584 ft | 317 kts | 126° |
| 2026-04-30 00:22 | 10.00525 | -84.51511 | 13176 ft | 316 kts | 125° |
| 2026-04-30 00:23 | 9.99230 | -84.49697 | 12786 ft | 315 kts | 125° |
| 2026-04-30 00:23 | 9.97916 | -84.47884 | 12361 ft | 314 kts | 125° |
| 2026-04-30 00:23 | 9.96610 | -84.46118 | 11944 ft | 314 kts | 126° |
| 2026-04-30 00:23 | 9.95301 | -84.44369 | 11522 ft | 313 kts | 126° |
| 2026-04-30 00:24 | 9.93975 | -84.42605 | 11124 ft | 311 kts | 126° |
| 2026-04-30 00:24 | 9.92681 | -84.40884 | 10713 ft | 305 kts | 126° |
| 2026-04-30 00:24 | 9.91405 | -84.39187 | 10312 ft | 298 kts | 126° |
| 2026-04-30 00:24 | 9.90166 | -84.37537 | 10045 ft | 287 kts | 126° |
| 2026-04-30 00:25 | 9.88984 | -84.35963 | 9808 ft | 277 kts | 125° |
| 2026-04-30 00:25 | 9.87897 | -84.34347 | 9417 ft | 271 kts | 116° |
| 2026-04-30 00:25 | 9.87349 | -84.32605 | 9250 ft | 255 kts | 91° |
| 2026-04-30 00:25 | 9.87607 | -84.30867 | 9011 ft | 255 kts | 70° |
| 2026-04-30 00:26 | 9.88273 | -84.29179 | 8655 ft | 259 kts | 67° |
| 2026-04-30 00:26 | 9.88938 | -84.27476 | 8332 ft | 259 kts | 68° |
| 2026-04-30 00:26 | 9.89564 | -84.25795 | 8158 ft | 251 kts | 69° |
| 2026-04-30 00:26 | 9.90161 | -84.24173 | 8097 ft | 239 kts | 69° |
| 2026-04-30 00:27 | 9.90728 | -84.22631 | 8058 ft | 226 kts | 69° |
| 2026-04-30 00:27 | 9.91272 | -84.21147 | 7825 ft | 223 kts | 69° |
| 2026-04-30 00:27 | 9.91819 | -84.19653 | 7477 ft | 226 kts | 69° |
| 2026-04-30 00:27 | 9.92357 | -84.18180 | 7181 ft | 224 kts | 69° |
| 2026-04-30 00:28 | 9.92890 | -84.16725 | 7063 ft | 211 kts | 69° |
| 2026-04-30 00:28 | 9.93394 | -84.15359 | 6857 ft | 202 kts | 69° |
| 2026-04-30 00:28 | 9.93879 | -84.14055 | 6623 ft | 191 kts | 68° |
| 2026-04-30 00:28 | 9.94321 | -84.12852 | 6455 ft | 176 kts | 68° |
| 2026-04-30 00:29 | 9.94804 | -84.11729 | 6265 ft | 168 kts | 58° |
| 2026-04-30 00:29 | 9.95570 | -84.10904 | 6023 ft | 160 kts | 36° |
| 2026-04-30 00:29 | 9.96552 | -84.10361 | 5809 ft | 161 kts | 25° |
| 2026-04-30 00:29 | 9.97657 | -84.10075 | 5632 ft | 163 kts | 6° |
| 2026-04-30 00:30 | 9.98797 | -84.10160 | 5415 ft | 168 kts | 351° |
| 2026-04-30 00:30 | 9.99880 | -84.10620 | 5093 ft | 170 kts | 320° |
| 2026-04-30 00:30 | 10.00424 | -84.11662 | 4852 ft | 173 kts | 289° |
| 2026-04-30 00:30 | 10.00754 | -84.12849 | 4549 ft | 174 kts | 284° |
| 2026-04-30 00:31 | 10.00904 | -84.14061 | 4230 ft | 170 kts | 273° |
| 2026-04-30 00:31 | 10.00893 | -84.15255 | 4008 ft | 169 kts | 268° |
| 2026-04-30 00:31 | 10.00806 | -84.16440 | 3787 ft | 171 kts | 264° |
| 2026-04-30 00:31 | 10.00583 | -84.17635 | 3567 ft | 172 kts | 255° |
| 2026-04-30 00:32 | 10.00188 | -84.18767 | 3339 ft | 170 kts | 248° |
| 2026-04-30 00:32 | 9.99761 | -84.19888 | 3097 ft | 167 kts | 249° |
| 2026-04-30 00:32 | 9.99368 | -84.20928 | 2999 ft | 151 kts | 250° |
| 2026-04-30 00:32 | 9.98964 | -84.22018 | 3249 ft | 166 kts | 250° |
| 2026-04-30 00:33 | 9.98544 | -84.23141 | 3606 ft | 180 kts | 249° |
| 2026-04-30 00:33 | 9.98048 | -84.24392 | 3941 ft | 197 kts | 248° |
| 2026-04-30 00:33 | 9.97472 | -84.25745 | 4200 ft | 220 kts | 242° |
| 2026-04-30 00:33 | 9.96438 | -84.26882 | 4454 ft | 223 kts | 210° |
| 2026-04-30 00:34 | 9.94930 | -84.27339 | 4501 ft | 227 kts | 180° |
| 2026-04-30 00:34 | 9.93467 | -84.26979 | 4712 ft | 210 kts | 146° |
| 2026-04-30 00:34 | 9.92532 | -84.25932 | 4784 ft | 201 kts | 108° |
| 2026-04-30 00:34 | 9.92535 | -84.24548 | 4685 ft | 202 kts | 71° |
| 2026-04-30 00:35 | 9.93063 | -84.23216 | 4671 ft | 203 kts | 66° |
| 2026-04-30 00:35 | 9.93600 | -84.21919 | 4671 ft | 204 kts | 67° |
| 2026-04-30 00:35 | 9.94142 | -84.20589 | 4673 ft | 205 kts | 67° |
| 2026-04-30 00:35 | 9.94680 | -84.19260 | 4675 ft | 201 kts | 67° |
| 2026-04-30 00:36 | 9.95192 | -84.17992 | 4678 ft | 184 kts | 67° |
| 2026-04-30 00:36 | 9.95672 | -84.16806 | 4697 ft | 181 kts | 67° |
| 2026-04-30 00:36 | 9.96152 | -84.15619 | 4700 ft | 180 kts | 67° |
| 2026-04-30 00:36 | 9.96629 | -84.14449 | 4702 ft | 180 kts | 67° |
| 2026-04-30 00:37 | 9.97116 | -84.13258 | 4704 ft | 181 kts | 67° |
| 2026-04-30 00:37 | 9.97600 | -84.12076 | 4705 ft | 180 kts | 67° |
| 2026-04-30 00:37 | 9.98076 | -84.10916 | 4710 ft | 179 kts | 67° |
| 2026-04-30 00:37 | 9.98560 | -84.09744 | 4717 ft | 178 kts | 67° |
| 2026-04-30 00:38 | 9.99233 | -84.08711 | 4713 ft | 175 kts | 37° |
| 2026-04-30 00:38 | 10.00426 | -84.08489 | 4862 ft | 188 kts | 344° |
| 2026-04-30 00:38 | 10.01415 | -84.09308 | 5116 ft | 187 kts | 300° |
| 2026-04-30 00:38 | 10.01796 | -84.10554 | 5102 ft | 183 kts | 285° |
| 2026-04-30 00:39 | 10.02097 | -84.11802 | 5082 ft | 181 kts | 287° |
| 2026-04-30 00:39 | 10.02428 | -84.13045 | 5075 ft | 181 kts | 287° |
| 2026-04-30 00:39 | 10.02743 | -84.14287 | 5068 ft | 182 kts | 281° |
| 2026-04-30 00:39 | 10.02575 | -84.15543 | 5069 ft | 184 kts | 250° |
| 2026-04-30 00:40 | 10.02080 | -84.16749 | 5065 ft | 184 kts | 248° |
| 2026-04-30 00:40 | 10.01603 | -84.17960 | 5062 ft | 185 kts | 249° |
| 2026-04-30 00:40 | 10.01132 | -84.19175 | 5062 ft | 185 kts | 249° |
| 2026-04-30 00:40 | 10.00658 | -84.20400 | 5060 ft | 185 kts | 249° |
| 2026-04-30 00:41 | 10.00184 | -84.21619 | 5058 ft | 184 kts | 249° |
| 2026-04-30 00:41 | 9.99698 | -84.22825 | 5055 ft | 184 kts | 243° |
| 2026-04-30 00:41 | 9.98771 | -84.23686 | 5054 ft | 184 kts | 197° |
| 2026-04-30 00:41 | 9.97537 | -84.23566 | 5066 ft | 180 kts | 150° |
| 2026-04-30 00:42 | 9.96454 | -84.22910 | 5064 ft | 179 kts | 146° |
| 2026-04-30 00:42 | 9.95413 | -84.22220 | 5057 ft | 177 kts | 134° |
| 2026-04-30 00:42 | 9.94944 | -84.21119 | 5062 ft | 171 kts | 84° |
| 2026-04-30 00:42 | 9.95312 | -84.19955 | 5090 ft | 180 kts | 66° |
| 2026-04-30 00:43 | 9.95803 | -84.18774 | 5077 ft | 181 kts | 67° |
| 2026-04-30 00:43 | 9.96285 | -84.17587 | 5083 ft | 181 kts | 67° |
| 2026-04-30 00:43 | 9.96763 | -84.16416 | 5078 ft | 183 kts | 67° |
| 2026-04-30 00:43 | 9.97253 | -84.15223 | 5087 ft | 180 kts | 67° |
| 2026-04-30 00:44 | 9.97741 | -84.14037 | 5090 ft | 180 kts | 67° |
| 2026-04-30 00:44 | 9.98221 | -84.12868 | 5095 ft | 180 kts | 67° |
| 2026-04-30 00:44 | 9.98703 | -84.11699 | 5098 ft | 181 kts | 67° |
| 2026-04-30 00:44 | 9.99192 | -84.10511 | 5099 ft | 179 kts | 67° |
| 2026-04-30 00:45 | 9.99667 | -84.09349 | 5100 ft | 180 kts | 67° |
| 2026-04-30 00:45 | 10.00146 | -84.08172 | 5100 ft | 181 kts | 67° |
| 2026-04-30 00:45 | 10.00806 | -84.07090 | 5097 ft | 181 kts | 38° |
| 2026-04-30 00:45 | 10.01978 | -84.06792 | 5331 ft | 181 kts | 348° |
| 2026-04-30 00:46 | 10.03008 | -84.07552 | 5345 ft | 192 kts | 302° |
| 2026-04-30 00:46 | 10.03328 | -84.08872 | 5261 ft | 197 kts | 271° |
| 2026-04-30 00:46 | 10.03134 | -84.10239 | 5078 ft | 191 kts | 254° |
| 2026-04-30 00:46 | 10.02711 | -84.11457 | 4959 ft | 176 kts | 251° |
| 2026-04-30 00:47 | 10.02313 | -84.12655 | 4744 ft | 179 kts | 253° |
| 2026-04-30 00:47 | 10.01938 | -84.13837 | 4477 ft | 171 kts | 251° |
| 2026-04-30 00:47 | 10.01534 | -84.14985 | 4257 ft | 173 kts | 251° |
| 2026-04-30 00:47 | 10.01140 | -84.16114 | 3966 ft | 168 kts | 250° |
| 2026-04-30 00:48 | 10.00736 | -84.17225 | 3698 ft | 167 kts | 250° |
| 2026-04-30 00:48 | 10.00339 | -84.18322 | 3447 ft | 163 kts | 250° |
| 2026-04-30 00:48 | 9.99939 | -84.19419 | 3216 ft | 165 kts | 249° |
| 2026-04-30 00:48 | 9.99532 | -84.20499 | 3027 ft | 160 kts | 249° |
| 2026-04-30 00:49 | 9.99176 | -84.21449 | 2975 ft | 112 kts | 248° |
| 2026-04-30 00:49 | 9.99007 | -84.21902 | 2953 ft | 38 kts | 250° |
| 2026-04-30 00:49 | 9.98948 | -84.22068 | 2944 ft | 23 kts | 249° |
| 2026-04-30 00:49 | 9.98931 | -84.22174 | 2938 ft | 4 kts | 316° |
| 2026-04-30 00:50 | 9.98951 | -84.22186 | 2937 ft | 7 kts | 335° |
| 2026-04-30 00:50 | 9.99018 | -84.22207 | 2935 ft | 11 kts | 5° |
| 2026-04-30 00:50 | 9.99072 | -84.22158 | 2935 ft | 10 kts | 68° |
| 2026-04-30 00:50 | 9.99093 | -84.22102 | 2937 ft | 6 kts | 70° |
| 2026-04-30 00:51 | 9.99103 | -84.22053 | 2939 ft | 10 kts | 90° |
| 2026-04-30 00:51 | 9.99091 | -84.21968 | 2944 ft | 10 kts | 94° |
| 2026-04-30 00:51 | 9.99105 | -84.21905 | 2948 ft | 9 kts | 69° |
| 2026-04-30 00:51 | 9.99131 | -84.21838 | 2952 ft | 11 kts | 69° |
| 2026-04-30 00:52 | 9.99165 | -84.21743 | 2956 ft | 17 kts | 69° |
| 2026-04-30 00:52 | 9.99205 | -84.21639 | 2961 ft | 13 kts | 69° |
| 2026-04-30 00:52 | 9.99231 | -84.21568 | 2966 ft | 10 kts | 70° |
| 2026-04-30 00:52 | 9.99259 | -84.21494 | 2972 ft | 12 kts | 69° |
| 2026-04-30 00:53 | 9.99296 | -84.21394 | 2976 ft | 17 kts | 69° |
| 2026-04-30 00:53 | 9.99332 | -84.21299 | 2982 ft | 11 kts | 70° |
| 2026-04-30 00:53 | 9.99357 | -84.21233 | 2986 ft | 9 kts | 70° |
| 2026-04-30 00:53 | 9.99380 | -84.21170 | 2989 ft | 8 kts | 69° |
| 2026-04-30 00:54 | 9.99401 | -84.21115 | 2992 ft | 9 kts | 69° |
| 2026-04-30 00:54 | 9.99427 | -84.21047 | 2995 ft | 10 kts | 69° |
| 2026-04-30 00:54 | 9.99454 | -84.20974 | 2999 ft | 12 kts | 69° |
| 2026-04-30 00:54 | 9.99487 | -84.20886 | 3003 ft | 13 kts | 69° |
| 2026-04-30 00:55 | 9.99523 | -84.20790 | 3008 ft | 15 kts | 69° |
| 2026-04-30 00:55 | 9.99564 | -84.20682 | 3014 ft | 16 kts | 69° |
| 2026-04-30 00:55 | 9.99635 | -84.20493 | 3024 ft | 9 kts | 69° |
| 2026-04-30 00:56 | 9.99654 | -84.20444 | 3027 ft | 4 kts | 69° |
| 2026-04-30 00:56 | 9.99666 | -84.20414 | 3029 ft | 4 kts | 68° |
| 2026-04-30 00:56 | 9.99680 | -84.20406 | 3029 ft | 2 kts | 355° |
| 2026-04-30 00:56 | 9.99697 | -84.20412 | 3030 ft | 3 kts | 341° |
| 2026-04-30 00:57 | 9.99719 | -84.20419 | 3029 ft | 0 kts | 340° |
| 2026-04-30 00:57 | 9.99719 | -84.20420 | 3029 ft | 0 kts | 340° |